Aérodrome :
LOGIN :

S'inscrire | Disclaimer

   EN    FR    IT 

 










Légende :    VFR   VFR Marginal   IFR   IFR Intensif   IFR Très Intensif
Visi : 
Plafond : 
>= 8 km
>= 3000ft
5 à 8 km
1000 à 3000 ft
1500m à 5 km
500 à 1000 ft
800 à 1500m
200 à 500 ft
< 800m
< 200 ft
Symboles :   Orages  Brouillard  Fortes neiges  Fortes précipitations  Vent > 20 kt
SIGMETs :   Divers  Orages  Givrage  Turbulence  Onde Orograph.  Cendres Volcan.






- Altitude de l'aérodrome : 788 ft
- Code IATA : DCM


LFCK - Castres-Mazamet

DERNIER METAR :
  • 281230Z AUTO 29020KT 8000 RA SCT020/// BKN026/// BKN032/// ///TCU 10/08 Q1018 TEMPO 30018G28KT NSW BKN012 SCT030TCU

METARs EXPIRÉS :
  • 281200Z AUTO 30010KT 9999 BKN019 BKN025 BKN030 11/09 Q1019 TEMPO 30018G28KT BKN012 SCT030TCU
  • 281130Z AUTO 28011KT 9999 BKN019 BKN027 BKN039 11/08 Q1019 TEMPO 30018G28KT BKN012 SCT030TCU
  • 281100Z AUTO 28015KT 9999 -RA BKN020/// OVC028/// ///CB 10/08 Q1019 TEMPO 30018G28KT BKN012 SCT030TCU
  • 281030Z AUTO 27011KT 9999 SCT018 BKN023 OVC031 10/08 Q1019 TEMPO 30018G28KT BKN012 SCT030TCU

TAF TAF LFCK
Valide du 28 à 12h jusqu'au 28 à 21h UTC


281100Z 2812/2821 28014KT 9999 SCT020
PROB40
TEMPO 2812/2815 30018G28KT -SHRA BKN012 SCT030TCU



MET'MAP, la Météo Aéronautique d'un coup d'oeil ! - Copyright ORBIFLY Décembre 2007 - Disclaimer

ORBIFLY MET'MAP TEAM :

Programmation & Développement : Alexandra Zaïnal
Sur une idée originale de : Baudouin d'Aumeries
Assistance à la programmation : Marc-Olivier Méhu
Soutien technique & logistique : Manuel Goepfert

Contact : metmap@orbifly.com




SOURCES & CREDITS :

   NOAA